Flight Track Log - Related Links

Times and Time Zones

All times are in EDT time to prevent confusion due to time zone crossing. See the DAL2477 flight status page for this flight to view local times or setup timezone preferences in your user account.

Time Position Orientation Groundspeed Altitude Reporting Facility
EDT Latitude Longitude Course Direction KTS MPH feet Rate Location/Type
08:25AM 26.9828 -81.7333 North  Level FlightAware Approximate
08:26AM 27.0909 -81.7630 340° North  Level FlightAware Approximate
08:27AM 27.1979 -81.8025 340° North  Level FlightAware Approximate
08:28AM 27.3053 -81.8406 344° North  Level FlightAware Approximate
08:28AM 26.8371 -81.8565 30° Northeast 418 481 13,400  Level FlightAware ADS-B
08:28AM 26.8879 -81.8233 30° Northeast 427 491 14,400 1,714 Climbing FlightAware ADS-B
08:29AM 26.9447 -81.7910 23° Northeast 431 496 15,200 1,770 Climbing FlightAware ADS-B
08:29AM 27.0025 -81.7693 15° North 427 491 16,200 1,875 Climbing FlightAware ADS-B
08:30AM 27.0995 -81.7432 13° North 438 504 17,700 1,835 Climbing FlightAware ADS-B
08:31AM 27.1724 -81.7236 14° North 445 512 18,800 1,818 Climbing FlightAware ADS-B
08:31AM 27.2302 -81.7076 14° North 451 519 19,700 1,662 Climbing FlightAware ADS-B
08:32AM 27.3054 -81.6867 14° North 460 529 20,600 1,455 Climbing FlightAware ADS-B
08:32AM 27.3705 -81.6685 14° North 470 541 21,300 1,475 Climbing FlightAware ADS-B
08:33AM 27.4330 -81.6508 14° North 475 547 22,100 1,500 Climbing FlightAware ADS-B
08:33AM 27.4986 -81.6323 14° North 483 556 22,800 1,161 Climbing FlightAware ADS-B
08:34AM 27.5670 -81.6131 14° North 497 572 23,300 1,059 Climbing FlightAware ADS-B
08:35AM 27.7255 -81.5683 14° North 517 595 24,600 1,135 Climbing FlightAware ADS-B
08:36AM 27.8212 -81.5411 14° North 523 602 25,400 1,167 Climbing FlightAware ADS-B
08:36AM 27.8962 -81.5199 14° North 529 609 26,000 1,082 Climbing FlightAware ADS-B
08:37AM 27.9588 -81.5021 14° North 534 615 26,500 1,000 Climbing FlightAware ADS-B
08:37AM 28.0417 -81.4786 14° North 541 623 27,000 1,031 Climbing FlightAware ADS-B
08:38AM 28.1247 -81.4551 14° North 546 628 27,600 1,125 Climbing FlightAware ADS-B
08:38AM 28.1924 -81.4363 North 536 617 28,200 1,154 Climbing FlightAware ADS-B
08:39AM 28.2513 -81.4336 358° North 513 590 28,600 1,161 Climbing FlightAware ADS-B
08:39AM 28.3470 -81.4391 358° North 514 592 29,400 1,457 Climbing FlightAware ADS-B
08:40AM 28.4181 -81.4410 359° North 509 586 30,300 1,754 Climbing FlightAware ADS-B
08:40AM 28.5006 -81.4413 North 504 580 31,300 1,765 Climbing FlightAware ADS-B (KSFB)
08:41AM 28.5208 -81.4411 North 503 579 31,800 1,385 Climbing FlightAware ADS-B (KSFB)
08:41AM 28.5618 -81.4409 359° North 500 575 31,900 1,200 Climbing FlightAware ADS-B
08:41AM 28.6303 -81.4434 358° North 494 568 32,600 968 Climbing FlightAware ADS-B
08:42AM 28.7049 -81.4470 358° North 501 577 32,900 676 Climbing FlightAware ADS-B
08:42AM 28.7939 -81.4506 358° North 505 581 33,400 686 Climbing FlightAware ADS-B
08:43AM 28.8682 -81.4535 358° North 508 585 33,700 845 Climbing FlightAware ADS-B
08:44AM 28.9634 -81.4570 358° North 506 582 34,400 1,114 Climbing FlightAware ADS-B
08:44AM 29.0323 -81.4593 358° North 492 566 35,000 600 Climbing FlightAware ADS-B
08:45AM 29.0992 -81.4618 357° North 481 554 35,000  Level FlightAware ADS-B
08:45AM 29.1650 -81.4693 353° North 473 544 35,000  Level FlightAware ADS-B
08:46AM 29.2321 -81.4786 353° North 478 550 35,000  Level FlightAware ADS-B
08:46AM 29.2986 -81.4875 354° North 484 557 35,000  Level FlightAware ADS-B
08:47AM 29.3645 -81.4968 352° North 479 551 35,000  Level FlightAware ADS-B
08:47AM 29.4308 -81.5070 353° North 480 552 35,000  Level FlightAware ADS-B
08:48AM 29.5196 -81.5202 353° North 482 555 35,000  Level FlightAware ADS-B
08:49AM 29.6091 -81.5333 353° North 482 555 35,000  Level FlightAware ADS-B
08:49AM 29.6988 -81.5464 353° North 482 555 35,000  Level FlightAware ADS-B
08:50AM 29.7762 -81.5577 353° North 481 554 35,000  Level FlightAware ADS-B
08:51AM 29.9569 -81.5828 353° North 478 550 35,000  Level Miami Center
08:54AM 30.2519 -81.6253 353° North 480 552 35,000  Level Jacksonville Center
08:55AM 30.4025 -81.6475 353° North 485 558 35,000  Level Jacksonville Center
08:56AM 30.5342 -81.6697 352° North 480 552 35,000  Level Jacksonville Center
08:57AM 30.6639 -81.6900 352° North 480 552 35,000  Level Jacksonville Center
08:58AM 30.7975 -81.7100 353° North 480 552 35,000  Level Jacksonville Center
08:59AM 30.9294 -81.7300 353° North 480 552 35,000  Level Jacksonville Center
09:00AM 31.0631 -81.7503 353° North 485 558 35,000  Level Jacksonville Center
09:02AM 31.3286 -81.7933 352° North 475 547 35,000  Level Jacksonville Center
09:03AM 31.4603 -81.8111 353° North 475 547 35,000  Level Jacksonville Center
09:04AM 31.5900 -81.8317 352° North 469 540 35,000  Level Jacksonville Center
09:05AM 31.7072 -81.8497 353° North 469 540 35,000  Level Jacksonville Center
09:06AM 31.9636 -81.8869 353° North 472 543 35,000  Level Atlanta Center
09:07AM 32.0892 -81.9086 352° North 462 532 35,000  Level Atlanta Center
09:08AM 32.2189 -81.9300 352° North 462 532 35,000  Level Atlanta Center
09:09AM 32.3467 -81.9442 355° North 462 532 35,000  Level Atlanta Center
09:10AM 32.4744 -81.9683 351° North 468 539 35,000  Level Atlanta Center
09:11AM 32.6042 -81.9872 353° North 468 539 35,000  Level Atlanta Center
09:12AM 32.7317 -82.0067 353° North 468 539 35,000  Level Atlanta Center
09:13AM 32.8614 -82.0183 356° North 468 539 35,000  Level Atlanta Center
09:14AM 32.9906 -82.0131 North 468 539 35,000  Level Atlanta Center
09:15AM 33.1219 -82.0075 North 463 533 35,000  Level Atlanta Center
09:16AM 33.2514 -82.0019 North 463 533 35,000  Level Atlanta Center
09:17AM 33.3806 -81.9939 North 458 527 35,000  Level Atlanta Center
09:19AM 33.6308 -81.9831 North 458 527 35,000  Level Atlanta Center
09:23AM 34.1483 -81.9631 North 458 527 35,000  Level Atlanta Center
09:25AM 34.4111 -81.9514 358° North 458 527 35,000  Level Atlanta Center
09:26AM 34.5383 -81.9483 North 458 527 35,000  Level Atlanta Center
09:27AM 34.6697 -81.9425 North 458 527 35,000  Level Atlanta Center
09:28AM 34.6093 -81.9302 North  Level FlightAware Approximate
09:28AM 34.8011 -81.9392 North 463 533 35,000  Level Atlanta Center
09:30AM 35.0681 -81.9350 352° North 473 544 35,000  Level Atlanta Center
09:31AM 35.0609 -81.9179 358° North  Level FlightAware Approximate
09:31AM 35.1994 -81.9342 360° North 473 544 35,000  Level Atlanta Center
09:32AM 35.3311 -81.9386 358° North 473 544 35,000  Level Atlanta Center
09:33AM 35.4606 -81.9428 358° North 473 544 35,000  Level Atlanta Center
09:34AM 35.5878 -81.9422 360° North 462 532 35,000  Level Atlanta Center
09:35AM 35.7172 -81.9467 358° North 462 532 35,000  Level Atlanta Center
09:37AM 35.9739 -81.9553 358° North 455 524 35,000  Level Atlanta Center
09:40AM 36.2681 -81.9592 359° North 463 533 35,000  Level Indianapolis Center
09:41AM 36.3961 -81.9628 359° North 463 533 35,000  Level Indianapolis Center
09:43AM 36.6725 -81.9694 359° North 461 531 35,000  Level Indianapolis Center
09:44AM 36.7989 -81.9728 359° North 460 529 35,000  Level Indianapolis Center
09:45AM 36.9247 -81.9761 359° North 458 527 35,000  Level Indianapolis Center
09:46AM 37.0486 -81.9789 359° North 452 520 35,000  Level Indianapolis Center
09:47AM 37.1925 -81.9831 359° North 447 514 35,000  Level Indianapolis Center
09:48AM 37.3164 -81.9869 359° North 446 513 35,000  Level Indianapolis Center
09:49AM 37.4389 -81.9906 359° North 445 512 35,000  Level Indianapolis Center
09:50AM 37.5622 -81.9939 359° North 445 512 35,000  Level Indianapolis Center
09:51AM 37.6850 -81.9983 358° North 444 511 35,000  Level Indianapolis Center
09:52AM 37.8267 -82.0011 359° North 440 506 35,000  Level Indianapolis Center
09:53AM 37.9514 -82.0050 359° North 439 505 35,000  Level Indianapolis Center
09:54AM 38.0717 -82.0072 359° North 434 499 35,000  Level Indianapolis Center
09:57AM 38.4361 -82.0167 354° North 434 499 35,000  Level Indianapolis Center
10:03AM 39.0726 -82.0651 354° North  Level FlightAware Approximate
10:03AM 39.1653 -82.0947 353° North 434 499 35,000  Level FlightAware ADS-B
10:04AM 39.2450 -82.1074 353° North 432 497 35,000  Level FlightAware ADS-B
10:04AM 39.3149 -82.1186 353° North 429 494 35,000  Level FlightAware ADS-B
10:05AM 39.3904 -82.1306 353° North 426 490 35,000  Level FlightAware ADS-B
10:06AM 39.4531 -82.1407 353° North 422 486 35,000  Level FlightAware ADS-B
10:06AM 39.5113 -82.1500 353° North 420 483 35,000  Level FlightAware ADS-B
10:07AM 39.5706 -82.1594 353° North 418 481 35,000  Level FlightAware ADS-B
10:07AM 39.6604 -82.1738 353° North 418 481 35,000  Level FlightAware ADS-B
10:08AM 39.7558 -82.1893 353° North 418 481 35,000  Level FlightAware ADS-B
10:09AM 39.8146 -82.1987 353° North 418 481 35,000  Level FlightAware ADS-B
10:09AM 39.8990 -82.2125 353° North 417 480 35,000 -419 Level FlightAware ADS-B
10:10AM 39.9798 -82.2255 353° North 418 481 34,400 -779 Descending FlightAware ADS-B
10:11AM 40.0319 -82.2294 353° North 418 481 34,000 -796 Descending Indianapolis Center
10:12AM 40.1469 -82.2478 353° North 417 480 33,100 -1,152 Descending Indianapolis Center
10:13AM 40.2619 -82.2658 353° North 415 478 31,600 -1,488 Descending Indianapolis Center
10:14AM 40.3753 -82.2853 353° North 410 472 30,000 -774 Descending Indianapolis Center
10:15AM 40.4881 -82.3047 353° North 408 470 30,000  Level Indianapolis Center
10:16AM 40.6181 -82.3411 348° North 407 468 30,000 -290 Level Indianapolis Center
10:17AM 40.7261 -82.3894 341° North 406 467 29,400 -823 Descending Indianapolis Center
10:18AM 40.8267 -82.4583 333° Northwest 404 465 28,300 -1,000 Descending Indianapolis Center
10:19AM 40.9428 -82.5367 333° Northwest 400 460 27,200 -812 Descending Cleveland Center
10:20AM 41.0414 -82.6025 333° Northwest 395 455 26,500 -864 Descending Cleveland Center
10:21AM 41.1378 -82.6672 333° Northwest 386 444 25,400 -2,290 Descending Cleveland Center
10:23AM 41.3203 -82.7931 333° Northwest 364 419 19,400 -2,710 Descending Cleveland Center
10:24AM 41.4083 -82.8522 333° Northwest 355 409 17,000 -2,530 Descending Cleveland Center
10:25AM 41.4489 -82.8856 328° Northwest 342 394 15,900 -2,419 Descending Cleveland Center
10:25AM 41.5064 -82.9200 336° Northwest 341 392 14,500 -1,967 Descending Cleveland Center
10:26AM 41.5325 -82.9411 329° Northwest 332 382 13,900 -1,935 Descending Cleveland Center
10:26AM 41.5886 -82.9758 335° Northwest 330 380 12,500 -1,442 Descending Cleveland Center
10:27AM 41.6619 -83.0275 332° Northwest 315 362 11,400 -677 Descending Cleveland Center
10:30AM 41.7911 -83.1214 332° Northwest 263 303 10,400 -935 Descending Cleveland Center
10:31AM 41.8650 -83.1808 329° Northwest 262 302 8,500 -1,652 Descending Cleveland Center
10:32AM 41.9222 -83.2711 310° West 255 293 6,600 -1,392 Descending Cleveland Center
10:33AM 41.9419 -83.3264 296° West 254 292 5,600 -1,135 Descending Cleveland Center
10:34AM 41.9722 -83.4097 296° West 230 265 4,500 -1,216 Descending Cleveland Center
10:34AM 41.9811 -83.4308 300° West 207 238 4,100 -822 Descending Cleveland Center
10:35AM 42.0367 -83.4417 352° North 193 222 3,500 -268 Descending Cleveland Center
10:36AM 42.0683 -83.4342 10° North 193 222 3,600 -269 Climbing Cleveland Center
10:36AM 42.0900 -83.4294 North 182 209 3,200 -1,161 Descending Cleveland Center
10:37AM 42.1217 -83.4067 28° Northeast 180 207 2,400 -984 Descending Cleveland Center
10:37AM 42.1303 -83.3986 35° Northeast 149 171 2,200 -774 Descending Cleveland Center
10:38AM 42.1572 -83.3803 27° Northeast 161 185 1,600 -885 Descending Cleveland Center
10:38AM 42.1678 -83.3731 27° Northeast 153 176 1,300 -774 Descending Cleveland Center
10:39AM 42.1928 -83.3525 31° Northeast 153 176 800 -625 Descending Cleveland Center

Login

Don't have an account? Register now (free) for customized features, flight alerts, and more!